sensor_id;sensor_type;location;lat;lon;timestamp;P1;durP1;ratioP1;P2;durP2;ratioP2
75470;SDS011;64051;46.320;48.028;2023-04-02T00:07:40;4.22;;;2.10;;
75470;SDS011;64051;46.320;48.028;2023-04-02T00:13:21;2.60;;;1.48;;
75470;SDS011;64051;46.320;48.028;2023-04-02T00:15:53;6.25;;;2.35;;
75470;SDS011;64051;46.320;48.028;2023-04-02T00:18:22;5.07;;;2.20;;
75470;SDS011;64051;46.320;48.028;2023-04-02T00:21:01;5.50;;;2.67;;
75470;SDS011;64051;46.320;48.028;2023-04-02T00:23:49;5.53;;;2.45;;
75470;SDS011;64051;46.320;48.028;2023-04-02T00:28:55;4.38;;;2.28;;
75470;SDS011;64051;46.320;48.028;2023-04-02T00:31:25;4.15;;;2.00;;
75470;SDS011;64051;46.320;48.028;2023-04-02T00:33:51;14.15;;;2.63;;
75470;SDS011;64051;46.320;48.028;2023-04-02T00:36:18;5.28;;;2.35;;
75470;SDS011;64051;46.320;48.028;2023-04-02T00:38:46;3.95;;;1.95;;
75470;SDS011;64051;46.320;48.028;2023-04-02T00:41:18;4.03;;;1.95;;
75470;SDS011;64051;46.320;48.028;2023-04-02T00:43:48;5.65;;;2.15;;
75470;SDS011;64051;46.320;48.028;2023-04-02T00:46:16;4.35;;;1.98;;
75470;SDS011;64051;46.320;48.028;2023-04-02T00:49:07;4.90;;;1.88;;
75470;SDS011;64051;46.320;48.028;2023-04-02T00:51:43;5.68;;;2.65;;
75470;SDS011;64051;46.320;48.028;2023-04-02T00:54:14;3.53;;;1.90;;
75470;SDS011;64051;46.320;48.028;2023-04-02T00:56:46;4.07;;;2.05;;
75470;SDS011;64051;46.320;48.028;2023-04-02T00:59:50;6.22;;;1.83;;
75470;SDS011;64051;46.320;48.028;2023-04-02T01:04:53;5.00;;;2.10;;
75470;SDS011;64051;46.320;48.028;2023-04-02T01:07:23;3.30;;;1.63;;
75470;SDS011;64051;46.320;48.028;2023-04-02T01:10:11;4.25;;;1.90;;
75470;SDS011;64051;46.320;48.028;2023-04-02T01:13:23;3.40;;;1.55;;
75470;SDS011;64051;46.320;48.028;2023-04-02T01:16:09;4.85;;;1.90;;
75470;SDS011;64051;46.320;48.028;2023-04-02T01:21:48;5.07;;;2.00;;
75470;SDS011;64051;46.320;48.028;2023-04-02T01:24:31;5.00;;;2.08;;
75470;SDS011;64051;46.320;48.028;2023-04-02T01:32:04;3.83;;;1.88;;
75470;SDS011;64051;46.320;48.028;2023-04-02T01:34:36;6.30;;;1.92;;
75470;SDS011;64051;46.320;48.028;2023-04-02T01:42:21;5.55;;;2.17;;
75470;SDS011;64051;46.320;48.028;2023-04-02T01:45:09;3.85;;;1.95;;
75470;SDS011;64051;46.320;48.028;2023-04-02T01:47:38;4.40;;;2.00;;
75470;SDS011;64051;46.320;48.028;2023-04-02T01:52:49;3.35;;;1.65;;
75470;SDS011;64051;46.320;48.028;2023-04-02T01:55:23;6.20;;;2.15;;
75470;SDS011;64051;46.320;48.028;2023-04-02T01:57:54;5.85;;;2.28;;
75470;SDS011;64051;46.320;48.028;2023-04-02T02:00:22;4.65;;;2.70;;
75470;SDS011;64051;46.320;48.028;2023-04-02T02:02:52;4.53;;;2.22;;
75470;SDS011;64051;46.320;48.028;2023-04-02T02:05:19;6.60;;;2.30;;
75470;SDS011;64051;46.320;48.028;2023-04-02T02:07:49;5.10;;;2.10;;
75470;SDS011;64051;46.320;48.028;2023-04-02T02:10:27;3.58;;;1.88;;
75470;SDS011;64051;46.320;48.028;2023-04-02T02:12:58;2.92;;;1.63;;
75470;SDS011;64051;46.320;48.028;2023-04-02T02:15:25;5.20;;;2.30;;
75470;SDS011;64051;46.320;48.028;2023-04-02T02:17:54;2.65;;;1.45;;
75470;SDS011;64051;46.320;48.028;2023-04-02T02:20:23;4.03;;;1.85;;
75470;SDS011;64051;46.320;48.028;2023-04-02T02:22:52;4.45;;;1.85;;
75470;SDS011;64051;46.320;48.028;2023-04-02T02:25:29;3.83;;;1.80;;
75470;SDS011;64051;46.320;48.028;2023-04-02T02:33:30;6.72;;;2.20;;
75470;SDS011;64051;46.320;48.028;2023-04-02T02:36:04;4.97;;;2.35;;
75470;SDS011;64051;46.320;48.028;2023-04-02T02:41:40;4.63;;;2.08;;
75470;SDS011;64051;46.320;48.028;2023-04-02T02:44:16;4.82;;;2.05;;
75470;SDS011;64051;46.320;48.028;2023-04-02T02:47:03;4.60;;;2.25;;
75470;SDS011;64051;46.320;48.028;2023-04-02T02:49:38;6.93;;;3.08;;
75470;SDS011;64051;46.320;48.028;2023-04-02T02:54:41;3.80;;;1.73;;
75470;SDS011;64051;46.320;48.028;2023-04-02T02:57:21;3.83;;;1.63;;
75470;SDS011;64051;46.320;48.028;2023-04-02T02:59:52;4.85;;;2.40;;
75470;SDS011;64051;46.320;48.028;2023-04-02T03:02:21;9.35;;;2.10;;
75470;SDS011;64051;46.320;48.028;2023-04-02T03:04:50;5.15;;;2.30;;
75470;SDS011;64051;46.320;48.028;2023-04-02T03:07:20;5.65;;;1.98;;
75470;SDS011;64051;46.320;48.028;2023-04-02T03:09:57;4.63;;;2.15;;
75470;SDS011;64051;46.320;48.028;2023-04-02T03:12:41;4.47;;;2.13;;
75470;SDS011;64051;46.320;48.028;2023-04-02T03:15:15;4.15;;;2.03;;
75470;SDS011;64051;46.320;48.028;2023-04-02T03:18:09;4.78;;;1.98;;
75470;SDS011;64051;46.320;48.028;2023-04-02T03:20:44;4.60;;;2.35;;
75470;SDS011;64051;46.320;48.028;2023-04-02T03:23:29;5.75;;;2.53;;
75470;SDS011;64051;46.320;48.028;2023-04-02T03:28:51;5.30;;;2.70;;
75470;SDS011;64051;46.320;48.028;2023-04-02T03:31:40;5.18;;;2.70;;
75470;SDS011;64051;46.320;48.028;2023-04-02T03:34:14;4.80;;;2.28;;
75470;SDS011;64051;46.320;48.028;2023-04-02T03:36:51;2.75;;;1.60;;
75470;SDS011;64051;46.320;48.028;2023-04-02T03:39:24;4.00;;;1.98;;
75470;SDS011;64051;46.320;48.028;2023-04-02T03:41:59;6.80;;;2.55;;
75470;SDS011;64051;46.320;48.028;2023-04-02T03:44:47;5.43;;;2.03;;
75470;SDS011;64051;46.320;48.028;2023-04-02T03:47:22;3.60;;;1.90;;
75470;SDS011;64051;46.320;48.028;2023-04-02T03:49:57;3.42;;;1.80;;
75470;SDS011;64051;46.320;48.028;2023-04-02T03:52:41;4.35;;;2.17;;
75470;SDS011;64051;46.320;48.028;2023-04-02T03:55:12;4.68;;;1.85;;
75470;SDS011;64051;46.320;48.028;2023-04-02T04:03:22;3.80;;;1.90;;
75470;SDS011;64051;46.320;48.028;2023-04-02T04:08:32;4.30;;;2.20;;
75470;SDS011;64051;46.320;48.028;2023-04-02T04:11:16;5.07;;;2.22;;
75470;SDS011;64051;46.320;48.028;2023-04-02T04:13:58;5.00;;;2.30;;
75470;SDS011;64051;46.320;48.028;2023-04-02T04:17:39;4.95;;;2.45;;
75470;SDS011;64051;46.320;48.028;2023-04-02T04:19:46;4.07;;;1.85;;
75470;SDS011;64051;46.320;48.028;2023-04-02T04:22:24;4.10;;;1.75;;
75470;SDS011;64051;46.320;48.028;2023-04-02T04:25:17;5.43;;;2.50;;
75470;SDS011;64051;46.320;48.028;2023-04-02T04:30:33;4.75;;;2.50;;
75470;SDS011;64051;46.320;48.028;2023-04-02T04:33:15;3.55;;;1.70;;
75470;SDS011;64051;46.320;48.028;2023-04-02T04:35:54;5.57;;;2.05;;
75470;SDS011;64051;46.320;48.028;2023-04-02T04:41:17;5.70;;;2.33;;
75470;SDS011;64051;46.320;48.028;2023-04-02T04:46:51;3.88;;;2.03;;
75470;SDS011;64051;46.320;48.028;2023-04-02T04:54:59;5.03;;;2.00;;
75470;SDS011;64051;46.320;48.028;2023-04-02T05:03:08;3.22;;;1.65;;
75470;SDS011;64051;46.320;48.028;2023-04-02T05:06:08;6.25;;;1.92;;
75470;SDS011;64051;46.320;48.028;2023-04-02T05:08:43;5.13;;;2.45;;
75470;SDS011;64051;46.320;48.028;2023-04-02T05:13:53;9.07;;;2.92;;
75470;SDS011;64051;46.320;48.028;2023-04-02T05:16:30;6.43;;;2.30;;
75470;SDS011;64051;46.320;48.028;2023-04-02T05:24:36;6.38;;;2.03;;
75470;SDS011;64051;46.320;48.028;2023-04-02T05:29:58;5.57;;;2.28;;
75470;SDS011;64051;46.320;48.028;2023-04-02T05:32:35;6.40;;;2.20;;
75470;SDS011;64051;46.320;48.028;2023-04-02T05:35:31;10.20;;;2.65;;
75470;SDS011;64051;46.320;48.028;2023-04-02T05:38:03;3.97;;;1.98;;
75470;SDS011;64051;46.320;48.028;2023-04-02T05:40:33;8.38;;;2.45;;
75470;SDS011;64051;46.320;48.028;2023-04-02T05:43:06;6.20;;;1.90;;
75470;SDS011;64051;46.320;48.028;2023-04-02T05:45:39;8.02;;;2.33;;
75470;SDS011;64051;46.320;48.028;2023-04-02T05:48:13;7.05;;;2.22;;
75470;SDS011;64051;46.320;48.028;2023-04-02T05:50:53;6.30;;;2.33;;
75470;SDS011;64051;46.320;48.028;2023-04-02T05:56:00;9.82;;;2.38;;
75470;SDS011;64051;46.320;48.028;2023-04-02T06:04:26;8.57;;;2.40;;
75470;SDS011;64051;46.320;48.028;2023-04-02T06:07:04;8.88;;;2.90;;
75470;SDS011;64051;46.320;48.028;2023-04-02T06:12:51;8.30;;;2.30;;
75470;SDS011;64051;46.320;48.028;2023-04-02T06:15:29;13.90;;;3.63;;
75470;SDS011;64051;46.320;48.028;2023-04-02T06:18:15;8.25;;;2.33;;
75470;SDS011;64051;46.320;48.028;2023-04-02T06:20:50;9.25;;;2.30;;
75470;SDS011;64051;46.320;48.028;2023-04-02T06:26:08;9.32;;;2.40;;
75470;SDS011;64051;46.320;48.028;2023-04-02T06:28:49;10.75;;;2.30;;
75470;SDS011;64051;46.320;48.028;2023-04-02T06:31:56;7.18;;;2.38;;
75470;SDS011;64051;46.320;48.028;2023-04-02T06:34:29;11.18;;;2.70;;
75470;SDS011;64051;46.320;48.028;2023-04-02T06:37:25;11.80;;;3.22;;
75470;SDS011;64051;46.320;48.028;2023-04-02T06:40:32;8.98;;;2.80;;
75470;SDS011;64051;46.320;48.028;2023-04-02T06:43:11;13.05;;;2.28;;
75470;SDS011;64051;46.320;48.028;2023-04-02T06:46:13;12.63;;;3.28;;
75470;SDS011;64051;46.320;48.028;2023-04-02T06:49:06;8.32;;;2.30;;
75470;SDS011;64051;46.320;48.028;2023-04-02T06:51:38;12.43;;;2.70;;
75470;SDS011;64051;46.320;48.028;2023-04-02T06:54:09;11.55;;;2.67;;
75470;SDS011;64051;46.320;48.028;2023-04-02T06:56:46;10.65;;;2.55;;
75470;SDS011;64051;46.320;48.028;2023-04-02T06:59:23;12.90;;;2.30;;
75470;SDS011;64051;46.320;48.028;2023-04-02T07:01:58;11.20;;;2.47;;
75470;SDS011;64051;46.320;48.028;2023-04-02T07:04:43;9.15;;;2.20;;
75470;SDS011;64051;46.320;48.028;2023-04-02T07:07:09;11.27;;;2.85;;
75470;SDS011;64051;46.320;48.028;2023-04-02T07:09:39;8.60;;;2.50;;
75470;SDS011;64051;46.320;48.028;2023-04-02T07:12:12;10.40;;;2.33;;
75470;SDS011;64051;46.320;48.028;2023-04-02T07:17:05;9.73;;;1.85;;
75470;SDS011;64051;46.320;48.028;2023-04-02T07:19:31;10.93;;;1.90;;
75470;SDS011;64051;46.320;48.028;2023-04-02T07:22:08;11.20;;;2.40;;
75470;SDS011;64051;46.320;48.028;2023-04-02T07:24:43;20.77;;;2.67;;
75470;SDS011;64051;46.320;48.028;2023-04-02T07:27:11;6.85;;;1.48;;
75470;SDS011;64051;46.320;48.028;2023-04-02T07:29:38;20.55;;;2.72;;
75470;SDS011;64051;46.320;48.028;2023-04-02T07:32:12;12.65;;;3.13;;
75470;SDS011;64051;46.320;48.028;2023-04-02T07:34:44;13.77;;;2.33;;
75470;SDS011;64051;46.320;48.028;2023-04-02T07:37:12;17.65;;;2.60;;
75470;SDS011;64051;46.320;48.028;2023-04-02T07:39:38;13.02;;;2.30;;
75470;SDS011;64051;46.320;48.028;2023-04-02T07:42:07;10.40;;;2.10;;
75470;SDS011;64051;46.320;48.028;2023-04-02T07:44:33;14.88;;;2.60;;
75470;SDS011;64051;46.320;48.028;2023-04-02T07:46:59;18.92;;;2.80;;
75470;SDS011;64051;46.320;48.028;2023-04-02T07:49:25;20.33;;;2.45;;
75470;SDS011;64051;46.320;48.028;2023-04-02T07:51:54;18.45;;;2.53;;
75470;SDS011;64051;46.320;48.028;2023-04-02T07:54:23;16.15;;;2.97;;
75470;SDS011;64051;46.320;48.028;2023-04-02T07:56:52;25.95;;;2.88;;
75470;SDS011;64051;46.320;48.028;2023-04-02T07:59:18;20.17;;;3.42;;
75470;SDS011;64051;46.320;48.028;2023-04-02T08:01:47;21.75;;;2.58;;
75470;SDS011;64051;46.320;48.028;2023-04-02T08:04:18;22.27;;;2.72;;
75470;SDS011;64051;46.320;48.028;2023-04-02T08:06:45;21.38;;;3.83;;
75470;SDS011;64051;46.320;48.028;2023-04-02T08:09:15;20.00;;;2.95;;
75470;SDS011;64051;46.320;48.028;2023-04-02T08:11:42;37.13;;;3.22;;
75470;SDS011;64051;46.320;48.028;2023-04-02T08:14:08;27.90;;;3.28;;
75470;SDS011;64051;46.320;48.028;2023-04-02T08:16:50;24.88;;;3.63;;
75470;SDS011;64051;46.320;48.028;2023-04-02T08:19:22;28.98;;;4.20;;
75470;SDS011;64051;46.320;48.028;2023-04-02T08:21:48;20.75;;;3.20;;
75470;SDS011;64051;46.320;48.028;2023-04-02T08:24:18;22.80;;;3.55;;
75470;SDS011;64051;46.320;48.028;2023-04-02T08:26:48;26.30;;;3.67;;
75470;SDS011;64051;46.320;48.028;2023-04-02T08:29:15;37.20;;;4.82;;
75470;SDS011;64051;46.320;48.028;2023-04-02T08:31:41;33.55;;;4.10;;
75470;SDS011;64051;46.320;48.028;2023-04-02T08:34:07;24.10;;;4.05;;
75470;SDS011;64051;46.320;48.028;2023-04-02T08:36:37;24.40;;;4.95;;
75470;SDS011;64051;46.320;48.028;2023-04-02T08:39:05;37.33;;;5.45;;
75470;SDS011;64051;46.320;48.028;2023-04-02T08:41:45;33.78;;;4.20;;
75470;SDS011;64051;46.320;48.028;2023-04-02T08:44:51;27.63;;;3.92;;
75470;SDS011;64051;46.320;48.028;2023-04-02T08:47:33;33.15;;;3.80;;
75470;SDS011;64051;46.320;48.028;2023-04-02T08:50:11;53.30;;;4.88;;
75470;SDS011;64051;46.320;48.028;2023-04-02T08:52:53;42.95;;;4.75;;
75470;SDS011;64051;46.320;48.028;2023-04-02T09:00:46;56.08;;;6.30;;
75470;SDS011;64051;46.320;48.028;2023-04-02T09:05:57;62.22;;;7.70;;
75470;SDS011;64051;46.320;48.028;2023-04-02T09:08:24;63.08;;;6.30;;
75470;SDS011;64051;46.320;48.028;2023-04-02T09:13:39;61.05;;;6.57;;
75470;SDS011;64051;46.320;48.028;2023-04-02T09:16:14;72.22;;;8.60;;
75470;SDS011;64051;46.320;48.028;2023-04-02T09:18:45;73.38;;;7.32;;
75470;SDS011;64051;46.320;48.028;2023-04-02T09:24:01;66.82;;;7.30;;
75470;SDS011;64051;46.320;48.028;2023-04-02T09:26:37;85.15;;;9.23;;
75470;SDS011;64051;46.320;48.028;2023-04-02T09:32:43;94.38;;;8.68;;
75470;SDS011;64051;46.320;48.028;2023-04-02T09:35:05;101.80;;;10.38;;
75470;SDS011;64051;46.320;48.028;2023-04-02T09:37:37;60.40;;;7.88;;
75470;SDS011;64051;46.320;48.028;2023-04-02T09:43:01;75.53;;;8.10;;
75470;SDS011;64051;46.320;48.028;2023-04-02T09:45:43;83.03;;;8.85;;
75470;SDS011;64051;46.320;48.028;2023-04-02T09:48:52;100.38;;;11.23;;
75470;SDS011;64051;46.320;48.028;2023-04-02T09:51:26;81.38;;;9.05;;
75470;SDS011;64051;46.320;48.028;2023-04-02T09:56:37;95.80;;;10.32;;
75470;SDS011;64051;46.320;48.028;2023-04-02T09:59:17;105.38;;;10.68;;
75470;SDS011;64051;46.320;48.028;2023-04-02T10:07:31;107.97;;;10.60;;
75470;SDS011;64051;46.320;48.028;2023-04-02T10:10:02;111.53;;;11.85;;
75470;SDS011;64051;46.320;48.028;2023-04-02T10:12:48;100.07;;;9.65;;
75470;SDS011;64051;46.320;48.028;2023-04-02T10:15:37;100.63;;;8.88;;
75470;SDS011;64051;46.320;48.028;2023-04-02T10:18:38;91.15;;;8.82;;
75470;SDS011;64051;46.320;48.028;2023-04-02T10:21:39;91.93;;;10.02;;
75470;SDS011;64051;46.320;48.028;2023-04-02T10:24:14;79.10;;;9.27;;
75470;SDS011;64051;46.320;48.028;2023-04-02T10:29:25;75.10;;;7.78;;
75470;SDS011;64051;46.320;48.028;2023-04-02T10:32:23;84.40;;;9.20;;
75470;SDS011;64051;46.320;48.028;2023-04-02T10:35:03;95.25;;;9.57;;
75470;SDS011;64051;46.320;48.028;2023-04-02T10:45:47;89.80;;;9.85;;
75470;SDS011;64051;46.320;48.028;2023-04-02T10:51:34;83.00;;;8.43;;
75470;SDS011;64051;46.320;48.028;2023-04-02T10:59:48;95.80;;;9.57;;
75470;SDS011;64051;46.320;48.028;2023-04-02T11:05:16;78.13;;;8.30;;
75470;SDS011;64051;46.320;48.028;2023-04-02T11:08:03;75.68;;;8.65;;
75470;SDS011;64051;46.320;48.028;2023-04-02T11:11:10;82.07;;;9.50;;
75470;SDS011;64051;46.320;48.028;2023-04-02T11:16:16;89.88;;;9.05;;
75470;SDS011;64051;46.320;48.028;2023-04-02T11:21:49;77.70;;;8.97;;
75470;SDS011;64051;46.320;48.028;2023-04-02T11:24:24;78.65;;;9.73;;
75470;SDS011;64051;46.320;48.028;2023-04-02T11:27:04;68.82;;;8.07;;
75470;SDS011;64051;46.320;48.028;2023-04-02T11:29:47;89.32;;;9.05;;
75470;SDS011;64051;46.320;48.028;2023-04-02T11:34:59;82.30;;;11.20;;
75470;SDS011;64051;46.320;48.028;2023-04-02T11:37:29;165.50;;;16.88;;
75470;SDS011;64051;46.320;48.028;2023-04-02T11:50:44;69.43;;;8.50;;
75470;SDS011;64051;46.320;48.028;2023-04-02T11:55:43;76.63;;;8.07;;
75470;SDS011;64051;46.320;48.028;2023-04-02T11:58:25;74.03;;;8.15;;
75470;SDS011;64051;46.320;48.028;2023-04-02T12:01:11;81.53;;;9.43;;
75470;SDS011;64051;46.320;48.028;2023-04-02T12:12:54;164.00;;;16.77;;
75470;SDS011;64051;46.320;48.028;2023-04-02T12:20:53;65.95;;;8.43;;
75470;SDS011;64051;46.320;48.028;2023-04-02T12:23:30;77.97;;;9.63;;
75470;SDS011;64051;46.320;48.028;2023-04-02T12:25:59;64.10;;;7.55;;
75470;SDS011;64051;46.320;48.028;2023-04-02T12:28:33;64.47;;;6.80;;
75470;SDS011;64051;46.320;48.028;2023-04-02T12:33:52;76.22;;;9.70;;
75470;SDS011;64051;46.320;48.028;2023-04-02T12:36:24;74.47;;;9.10;;
75470;SDS011;64051;46.320;48.028;2023-04-02T12:38:52;66.57;;;7.45;;
75470;SDS011;64051;46.320;48.028;2023-04-02T12:44:16;86.53;;;8.77;;
75470;SDS011;64051;46.320;48.028;2023-04-02T12:46:48;75.88;;;7.57;;
75470;SDS011;64051;46.320;48.028;2023-04-02T12:49:33;59.53;;;7.53;;
75470;SDS011;64051;46.320;48.028;2023-04-02T12:52:09;46.03;;;5.82;;
75470;SDS011;64051;46.320;48.028;2023-04-02T12:54:52;60.05;;;7.03;;
75470;SDS011;64051;46.320;48.028;2023-04-02T13:00:02;74.43;;;8.93;;
75470;SDS011;64051;46.320;48.028;2023-04-02T13:05:37;51.50;;;6.78;;
75470;SDS011;64051;46.320;48.028;2023-04-02T13:11:07;62.15;;;7.80;;
75470;SDS011;64051;46.320;48.028;2023-04-02T13:13:37;54.10;;;6.45;;
75470;SDS011;64051;46.320;48.028;2023-04-02T13:16:06;69.40;;;7.80;;
75470;SDS011;64051;46.320;48.028;2023-04-02T13:19:08;62.55;;;6.97;;
75470;SDS011;64051;46.320;48.028;2023-04-02T13:21:35;64.38;;;6.68;;
75470;SDS011;64051;46.320;48.028;2023-04-02T13:24:20;73.03;;;7.45;;
75470;SDS011;64051;46.320;48.028;2023-04-02T13:26:53;55.67;;;6.85;;
75470;SDS011;64051;46.320;48.028;2023-04-02T13:31:57;67.13;;;6.70;;
75470;SDS011;64051;46.320;48.028;2023-04-02T13:34:27;59.28;;;6.97;;
75470;SDS011;64051;46.320;48.028;2023-04-02T13:36:56;62.45;;;7.00;;
75470;SDS011;64051;46.320;48.028;2023-04-02T13:39:25;80.38;;;7.85;;
75470;SDS011;64051;46.320;48.028;2023-04-02T13:41:53;70.95;;;6.90;;
75470;SDS011;64051;46.320;48.028;2023-04-02T13:44:22;64.30;;;6.80;;
75470;SDS011;64051;46.320;48.028;2023-04-02T13:46:53;71.80;;;8.27;;
75470;SDS011;64051;46.320;48.028;2023-04-02T13:49:23;83.35;;;8.65;;
75470;SDS011;64051;46.320;48.028;2023-04-02T13:51:51;85.85;;;8.13;;
75470;SDS011;64051;46.320;48.028;2023-04-02T13:57:15;63.92;;;6.95;;
75470;SDS011;64051;46.320;48.028;2023-04-02T13:59:45;71.45;;;7.05;;
75470;SDS011;64051;46.320;48.028;2023-04-02T14:02:13;66.30;;;7.68;;
75470;SDS011;64051;46.320;48.028;2023-04-02T14:04:48;62.60;;;8.23;;
75470;SDS011;64051;46.320;48.028;2023-04-02T14:10:19;71.18;;;7.25;;
75470;SDS011;64051;46.320;48.028;2023-04-02T14:24:17;69.63;;;7.55;;
75470;SDS011;64051;46.320;48.028;2023-04-02T14:41:10;81.78;;;9.13;;
75470;SDS011;64051;46.320;48.028;2023-04-02T14:43:53;80.43;;;8.45;;
75470;SDS011;64051;46.320;48.028;2023-04-02T14:46:27;80.80;;;8.57;;
75470;SDS011;64051;46.320;48.028;2023-04-02T14:51:48;81.68;;;10.52;;
75470;SDS011;64051;46.320;48.028;2023-04-02T15:03:13;84.03;;;8.27;;
75470;SDS011;64051;46.320;48.028;2023-04-02T15:06:05;87.68;;;8.68;;
75470;SDS011;64051;46.320;48.028;2023-04-02T15:08:48;66.93;;;7.85;;
75470;SDS011;64051;46.320;48.028;2023-04-02T15:11:32;78.15;;;8.63;;
75470;SDS011;64051;46.320;48.028;2023-04-02T15:14:08;63.63;;;7.82;;
75470;SDS011;64051;46.320;48.028;2023-04-02T15:16:44;79.40;;;8.18;;
75470;SDS011;64051;46.320;48.028;2023-04-02T15:19:19;79.95;;;9.07;;
75470;SDS011;64051;46.320;48.028;2023-04-02T15:24:30;64.38;;;9.43;;
75470;SDS011;64051;46.320;48.028;2023-04-02T15:27:48;73.28;;;8.52;;
75470;SDS011;64051;46.320;48.028;2023-04-02T15:30:37;82.85;;;8.38;;
75470;SDS011;64051;46.320;48.028;2023-04-02T15:33:23;71.20;;;8.55;;
75470;SDS011;64051;46.320;48.028;2023-04-02T15:38:55;88.65;;;9.00;;
75470;SDS011;64051;46.320;48.028;2023-04-02T15:41:40;62.85;;;8.45;;
75470;SDS011;64051;46.320;48.028;2023-04-02T15:44:19;77.70;;;7.72;;
75470;SDS011;64051;46.320;48.028;2023-04-02T15:49:41;28.90;;;6.05;;
75470;SDS011;64051;46.320;48.028;2023-04-02T15:52:24;22.95;;;5.20;;
75470;SDS011;64051;46.320;48.028;2023-04-02T15:55:21;24.42;;;5.47;;
75470;SDS011;64051;46.320;48.028;2023-04-02T16:07:11;20.55;;;4.10;;
75470;SDS011;64051;46.320;48.028;2023-04-02T16:10:02;27.48;;;4.07;;
75470;SDS011;64051;46.320;48.028;2023-04-02T16:12:36;22.98;;;4.65;;
75470;SDS011;64051;46.320;48.028;2023-04-02T16:21:27;28.75;;;4.80;;
75470;SDS011;64051;46.320;48.028;2023-04-02T16:24:00;18.77;;;4.32;;
75470;SDS011;64051;46.320;48.028;2023-04-02T16:26:33;24.10;;;4.75;;
75470;SDS011;64051;46.320;48.028;2023-04-02T16:45:47;29.25;;;5.40;;
75470;SDS011;64051;46.320;48.028;2023-04-02T16:53:46;24.15;;;6.15;;
75470;SDS011;64051;46.320;48.028;2023-04-02T16:56:45;27.55;;;6.30;;
75470;SDS011;64051;46.320;48.028;2023-04-02T16:59:39;26.58;;;6.20;;
75470;SDS011;64051;46.320;48.028;2023-04-02T17:13:27;28.00;;;5.47;;
75470;SDS011;64051;46.320;48.028;2023-04-02T17:18:52;31.35;;;5.60;;
75470;SDS011;64051;46.320;48.028;2023-04-02T17:21:27;22.30;;;4.82;;
75470;SDS011;64051;46.320;48.028;2023-04-02T17:26:53;20.17;;;3.63;;
75470;SDS011;64051;46.320;48.028;2023-04-02T17:29:35;18.70;;;4.40;;
75470;SDS011;64051;46.320;48.028;2023-04-02T17:32:26;21.33;;;3.60;;
75470;SDS011;64051;46.320;48.028;2023-04-02T17:38:16;20.02;;;4.05;;
75470;SDS011;64051;46.320;48.028;2023-04-02T17:41:39;19.90;;;4.72;;
75470;SDS011;64051;46.320;48.028;2023-04-02T17:44:00;21.52;;;4.65;;
75470;SDS011;64051;46.320;48.028;2023-04-02T17:47:00;14.35;;;3.60;;
75470;SDS011;64051;46.320;48.028;2023-04-02T17:52:57;18.90;;;3.38;;
75470;SDS011;64051;46.320;48.028;2023-04-02T18:04:38;16.90;;;3.90;;
75470;SDS011;64051;46.320;48.028;2023-04-02T18:09:54;26.83;;;4.40;;
75470;SDS011;64051;46.320;48.028;2023-04-02T18:13:38;16.88;;;3.47;;
75470;SDS011;64051;46.320;48.028;2023-04-02T18:24:32;15.88;;;3.53;;
75470;SDS011;64051;46.320;48.028;2023-04-02T18:27:31;15.75;;;3.22;;
75470;SDS011;64051;46.320;48.028;2023-04-02T18:38:46;15.18;;;3.45;;
75470;SDS011;64051;46.320;48.028;2023-04-02T18:41:27;18.88;;;3.00;;
75470;SDS011;64051;46.320;48.028;2023-04-02T18:44:23;14.98;;;3.45;;
75470;SDS011;64051;46.320;48.028;2023-04-02T18:50:16;15.35;;;3.35;;
75470;SDS011;64051;46.320;48.028;2023-04-02T18:52:57;18.10;;;3.42;;
75470;SDS011;64051;46.320;48.028;2023-04-02T18:55:40;17.02;;;3.25;;
75470;SDS011;64051;46.320;48.028;2023-04-02T19:01:12;17.02;;;3.22;;
75470;SDS011;64051;46.320;48.028;2023-04-02T19:03:50;13.75;;;2.97;;
75470;SDS011;64051;46.320;48.028;2023-04-02T19:06:26;14.77;;;3.05;;
75470;SDS011;64051;46.320;48.028;2023-04-02T19:12:08;16.10;;;2.92;;
75470;SDS011;64051;46.320;48.028;2023-04-02T19:14:44;6.78;;;2.75;;
75470;SDS011;64051;46.320;48.028;2023-04-02T19:23:12;13.65;;;3.28;;
75470;SDS011;64051;46.320;48.028;2023-04-02T19:26:03;21.00;;;3.72;;
75470;SDS011;64051;46.320;48.028;2023-04-02T19:34:27;16.75;;;2.95;;
75470;SDS011;64051;46.320;48.028;2023-04-02T19:40:05;11.20;;;2.95;;
75470;SDS011;64051;46.320;48.028;2023-04-02T19:42:55;28.42;;;10.40;;
75470;SDS011;64051;46.320;48.028;2023-04-02T19:48:21;10.15;;;3.25;;
75470;SDS011;64051;46.320;48.028;2023-04-02T19:50:52;18.40;;;4.85;;
75470;SDS011;64051;46.320;48.028;2023-04-02T19:53:21;19.60;;;6.00;;
75470;SDS011;64051;46.320;48.028;2023-04-02T19:55:49;17.85;;;3.20;;
75470;SDS011;64051;46.320;48.028;2023-04-02T19:58:26;14.65;;;2.92;;
75470;SDS011;64051;46.320;48.028;2023-04-02T20:00:58;14.23;;;3.20;;
75470;SDS011;64051;46.320;48.028;2023-04-02T20:03:39;20.27;;;3.40;;
75470;SDS011;64051;46.320;48.028;2023-04-02T20:06:07;9.68;;;2.63;;
75470;SDS011;64051;46.320;48.028;2023-04-02T20:08:34;11.75;;;2.65;;
75470;SDS011;64051;46.320;48.028;2023-04-02T20:11:02;19.23;;;3.28;;
75470;SDS011;64051;46.320;48.028;2023-04-02T20:13:33;12.35;;;3.13;;
75470;SDS011;64051;46.320;48.028;2023-04-02T20:16:06;16.45;;;3.03;;
75470;SDS011;64051;46.320;48.028;2023-04-02T20:18:33;14.57;;;3.40;;
75470;SDS011;64051;46.320;48.028;2023-04-02T20:21:05;18.27;;;3.50;;
75470;SDS011;64051;46.320;48.028;2023-04-02T20:23:33;14.88;;;3.20;;
75470;SDS011;64051;46.320;48.028;2023-04-02T20:26:03;14.20;;;3.25;;
75470;SDS011;64051;46.320;48.028;2023-04-02T20:28:37;9.40;;;2.85;;
75470;SDS011;64051;46.320;48.028;2023-04-02T20:31:10;14.85;;;3.20;;
75470;SDS011;64051;46.320;48.028;2023-04-02T20:33:38;22.92;;;5.20;;
75470;SDS011;64051;46.320;48.028;2023-04-02T20:36:09;18.38;;;4.32;;
75470;SDS011;64051;46.320;48.028;2023-04-02T20:38:37;8.57;;;3.00;;
75470;SDS011;64051;46.320;48.028;2023-04-02T20:41:03;19.73;;;2.85;;
75470;SDS011;64051;46.320;48.028;2023-04-02T20:43:33;20.65;;;3.30;;
75470;SDS011;64051;46.320;48.028;2023-04-02T20:46:01;16.60;;;2.92;;
75470;SDS011;64051;46.320;48.028;2023-04-02T20:48:32;11.75;;;2.83;;
75470;SDS011;64051;46.320;48.028;2023-04-02T20:51:04;13.95;;;2.95;;
75470;SDS011;64051;46.320;48.028;2023-04-02T20:53:32;14.88;;;3.17;;
75470;SDS011;64051;46.320;48.028;2023-04-02T20:56:09;15.57;;;3.05;;
75470;SDS011;64051;46.320;48.028;2023-04-02T20:58:37;13.10;;;3.13;;
75470;SDS011;64051;46.320;48.028;2023-04-02T21:01:23;20.10;;;3.45;;
75470;SDS011;64051;46.320;48.028;2023-04-02T21:03:57;11.85;;;2.95;;
75470;SDS011;64051;46.320;48.028;2023-04-02T21:06:31;13.07;;;3.25;;
75470;SDS011;64051;46.320;48.028;2023-04-02T21:09:06;17.73;;;3.30;;
75470;SDS011;64051;46.320;48.028;2023-04-02T21:11:35;15.05;;;3.53;;
75470;SDS011;64051;46.320;48.028;2023-04-02T21:14:01;18.17;;;3.25;;
75470;SDS011;64051;46.320;48.028;2023-04-02T21:16:29;11.63;;;3.28;;
75470;SDS011;64051;46.320;48.028;2023-04-02T21:18:59;17.27;;;3.10;;
75470;SDS011;64051;46.320;48.028;2023-04-02T21:21:27;12.40;;;3.00;;
75470;SDS011;64051;46.320;48.028;2023-04-02T21:23:59;12.38;;;3.28;;
75470;SDS011;64051;46.320;48.028;2023-04-02T21:26:28;19.65;;;3.38;;
75470;SDS011;64051;46.320;48.028;2023-04-02T21:28:56;15.77;;;3.42;;
75470;SDS011;64051;46.320;48.028;2023-04-02T21:31:23;11.90;;;3.20;;